• Join FlightAware (Why Join?)
  • Login
  • US Flag 
11:50AM EDT


 

Airport Tracker/Info


-or-


 

Live Flight TrackerFlight Track Log ✈ UAL4191 ✈ 26-Apr-2013 ✈ KDAL - KIAH

Flight Track Log - Related Links

Times and Time Zones

All times are in EDT time to prevent confusion due to time zone crossing. See the UAL4191 flight status page for this flight to view local times or setup timezone preferences in your user account.

Time Position Orientation Groundspeed Altitude Reporting Facility
EDT Latitude Longitude Course Direction KTS MPH feet Rate Location/Type
10:44AM 32.8333 -96.8333 140° Southeast 155 178 1,300  Level Dallas / Fort Worth TRACON
10:45AM 32.8000 -96.8000 140° Southeast 187 215 3,100 1,800 Climbing Dallas / Fort Worth TRACON
10:46AM 32.7500 -96.7667 151° Southeast 236 272 4,800 2,040 Climbing Dallas / Fort Worth TRACON
10:47AM 32.7000 -96.7500 164° South 240 276 7,100 1,620 Climbing Dallas / Fort Worth TRACON
10:49AM 32.5689 -96.7847 193° South 240 276 9,600 1,260 Climbing Fort Worth Center
10:50AM 32.5042 -96.8025 193° South 255 293 10,800 1,080 Climbing Fort Worth Center
10:51AM 32.4144 -96.8203 189° South 291 335 11,800 960 Climbing Fort Worth Center
10:52AM 32.3289 -96.8158 177° South 326 375 12,800 1,500 Climbing Fort Worth Center
10:53AM 32.2306 -96.7847 165° South 337 388 14,900 1,980 Climbing Fort Worth Center
10:54AM 32.1511 -96.7483 159° South 342 394 16,800 1,440 Climbing Fort Worth Center
10:55AM 32.0547 -96.7122 162° South 337 388 17,800 840 Climbing Fort Worth Center
10:56AM 31.9586 -96.6739 161° South 349 402 18,600 960 Climbing Fort Worth Center
10:57AM 31.8581 -96.6356 162° South 367 422 19,800 1,140 Climbing Fort Worth Center
10:58AM 31.7536 -96.5997 164° South 383 441 20,900 540 Climbing Fort Worth Center
10:59AM 31.6447 -96.5544 161° South 400 460 21,000  Climbing Fort Worth Center
11:00AM 31.5692 -96.5258 162° South 418 481 21,000  Level Houston Center
11:01AM 31.4481 -96.4778 161° South 429 494 21,000  Level Houston Center
11:02AM 31.3389 -96.4356 162° South 430 495 21,000  Level Houston Center
11:03AM 31.2267 -96.3925 162° South 423 487 21,000  Level Houston Center
11:04AM 31.1206 -96.3525 162° South 350 403 21,000  Level Houston Center
11:05AM 31.0211 -96.3242 166° South 356 410 21,000 -180 Level Houston Center
11:06AM 30.9208 -96.2844 161° South 369 425 20,700 -900 Descending Houston Center
11:07AM 30.8272 -96.2161 148° Southeast 395 455 19,200 -1,680 Descending Houston Center
11:08AM 30.7322 -96.1475 148° Southeast 395 455 17,200 -2,400 Descending Houston Center
11:09AM 30.6642 -96.0958 147° Southeast 393 452 15,100 -2,760 Descending Houston Center
11:09AM 30.6439 -96.0739 137° Southeast 387 445 14,400 -2,520 Descending Houston Center
11:10AM 30.6089 -96.0389 139° Southeast 373 429 13,300 -2,760 Descending Houston Center
11:10AM 30.5583 -95.9819 136° Southeast 368 423 11,600 -2,760 Descending Houston Center
11:11AM 30.5308 -95.9583 144° Southeast 356 410 10,500 -1,560 Descending Houston Center
11:11AM 30.4892 -95.9078 134° Southeast 345 397 10,000 -540 Descending Houston Center
11:12AM 30.4678 -95.8856 138° Southeast 286 329 10,000 60 Level Houston Center
11:12AM 30.4314 -95.8444 136° Southeast 293 337 10,100  Climbing Houston Center
11:13AM 30.4097 -95.8219 138° Southeast 287 330 10,000 -720 Descending Houston Center
11:13AM 30.3706 -95.7858 141° Southeast 285 328 9,400 -1,080 Descending Houston Center
11:14AM 30.3014 -95.7928 185° South 254 292 8,100 -720 Descending Houston Center
11:16AM 30.2436 -95.8061 191° South 222 255 8,000 -60 Descending Houston Center
11:17AM 30.1719 -95.8092 182° South 215 247 8,000 -300 Level Houston Center
11:18AM 30.1167 -95.8311 199° South 219 252 7,500 -480 Descending Houston Center
11:19AM 30.0569 -95.8678 208° Southwest 182 209 7,000 -360 Descending Houston Center
11:20AM 30.0125 -95.8633 175° South 196 226 6,800 -420 Descending Houston Center
11:21AM 29.9939 -95.8206 117° Southeast 197 227 6,200 -420 Descending Houston Center
11:22AM 29.9914 -95.7583 93° East 197 227 6,000 -360 Descending Houston Center
11:23AM 29.9922 -95.6789 89° East 206 237 5,500 -720 Descending Houston Center
11:24AM 29.9933 -95.6175 89° East 197 227 4,500 -1,020 Descending Houston Center
11:25AM 29.9928 -95.5472 91° East 183 211 3,300 -1,020 Descending Houston Center
11:26AM 29.9939 -95.5006 88° East 184 212 2,500 -960 Descending Houston Center
11:27AM 29.9936 -95.4386 90° East 169 194 1,500 -840 Descending Houston Center
11:28AM 29.9936 -95.3953 90° East 131 151 800 -540 Descending Houston Center
11:29AM 29.9947 -95.3572 88° East 144 166 400 -420 Descending Houston Center